Time;durP1;ratioP1;P1;durP2;ratioP2;P2;SDS_P1;SDS_P2;PMS_P1;PMS_P2;Temp;Humidity;BMP_temperature;BMP_pressure;BME280_temperature;BME280_humidity;BME280_pressure;Samples;Min_cycle;Max_cycle;Signal;HPM_P1;HPM_P2
2021/07/02 00:02:23;;;;;;;32.95;11.30;;;;;;;26.81;38.13;100792.72;4423945;32;20100;-75
2021/07/02 00:04:49;;;;;;;23.40;9.73;;;;;;;26.92;38.07;100785.97;4425274;32;20081;-75
2021/07/02 00:07:15;;;;;;;26.27;9.65;;;;;;;26.66;38.47;100788.78;4418552;32;20071;-75
2021/07/02 00:09:40;;;;;;;27.58;9.55;;;;;;;26.54;38.82;100788.12;4420922;32;20417;-75
2021/07/02 00:12:06;;;;;;;26.80;10.15;;;;;;;26.44;39.06;100780.41;4420467;32;20103;-75
2021/07/02 00:14:33;;;;;;;25.67;9.48;;;;;;;26.52;39.04;100781.34;4419486;32;20108;-75
2021/07/02 00:16:59;;;;;;;25.45;9.90;;;;;;;26.38;39.32;100777.62;4419755;32;20046;-75
2021/07/02 00:19:26;;;;;;;21.70;9.25;;;;;;;26.27;39.64;100774.16;4419243;32;20085;-75
2021/07/02 00:21:52;;;;;;;24.33;9.75;;;;;;;26.08;39.98;100771.25;4420170;32;20428;-75
2021/07/02 00:24:17;;;;;;;24.95;9.55;;;;;;;26.07;40.14;100768.91;4417312;32;20104;-74
2021/07/02 00:26:43;;;;;;;22.77;10.93;;;;;;;25.87;40.65;100769.44;4418902;32;20045;-75
2021/07/02 00:29:09;;;;;;;28.52;10.10;;;;;;;25.93;40.47;100768.03;4421490;32;20069;-75
2021/07/02 00:31:34;;;;;;;27.50;9.90;;;;;;;26.08;40.26;100764.72;4419910;32;20093;-75
2021/07/02 00:34:00;;;;;;;24.75;9.75;;;;;;;24.44;43.78;100751.50;4420903;32;20038;-75
2021/07/02 00:36:27;;;;;;;26.02;10.38;;;;;;;24.46;43.77;100748.87;4420298;32;20705;-74
2021/07/02 00:38:53;;;;;;;33.65;9.77;;;;;;;25.00;42.80;100756.25;4423026;32;20106;-75
2021/07/02 00:41:20;;;;;;;21.25;9.85;;;;;;;25.42;41.89;100757.69;4420977;32;20049;-74
2021/07/02 00:43:50;;;;;;;25.50;10.27;;;;;;;25.02;42.91;100756.50;4421177;32;20038;-75
2021/07/02 00:46:15;;;;;;;21.52;9.30;;;;;;;25.08;42.80;100745.72;4419653;32;20088;-75
2021/07/02 00:48:42;;;;;;;23.02;10.23;;;;;;;24.86;43.22;100754.59;4424006;32;20597;-74
2021/07/02 00:51:08;;;;;;;24.35;9.77;;;;;;;25.00;43.01;100743.94;4406504;32;20065;-74
2021/07/02 00:53:33;;;;;;;22.92;10.52;;;;;;;25.09;42.64;100753.03;4424165;32;20484;-74
2021/07/02 00:56:00;;;;;;;24.77;10.18;;;;;;;25.17;42.62;100756.88;4424168;32;20042;-74
2021/07/02 00:58:32;;;;;;;23.30;10.23;;;;;;;25.23;42.66;100751.84;4423262;32;20068;-74
2021/07/02 01:00:58;;;;;;;27.23;12.02;;;;;;;25.86;41.29;100747.69;4421148;32;20150;-75
2021/07/02 01:03:24;;;;;;;26.73;11.48;;;;;;;25.46;42.16;100748.75;4421453;32;20156;-75
2021/07/02 01:05:50;;;;;;;27.00;11.82;;;;;;;25.50;42.07;100752.88;4423164;32;20354;-75
2021/07/02 01:08:16;;;;;;;23.73;11.98;;;;;;;25.58;42.14;100741.53;4417001;32;20124;-74
2021/07/02 01:10:43;;;;;;;23.15;10.88;;;;;;;25.49;42.39;100751.28;4420498;32;20156;-74
2021/07/02 01:13:09;;;;;;;23.17;11.32;;;;;;;25.65;42.04;100735.13;4420272;32;20054;-74
2021/07/02 01:15:35;;;;;;;24.95;10.90;;;;;;;25.50;42.44;100743.44;4419291;32;20077;-74
2021/07/02 01:18:08;;;;;;;23.05;11.40;;;;;;;25.55;42.18;100743.38;4419747;32;20055;-75
2021/07/02 01:20:35;;;;;;;31.75;11.88;;;;;;;25.71;41.99;100748.13;4421378;32;20088;-75
2021/07/02 01:23:03;;;;;;;24.25;11.02;;;;;;;25.48;42.40;100746.88;4418766;32;20160;-75
2021/07/02 01:25:32;;;;;;;32.20;11.10;;;;;;;25.58;42.31;100739.41;4420635;32;20060;-74
2021/07/02 01:28:00;;;;;;;28.30;11.20;;;;;;;25.41;42.69;100744.59;4421563;32;20108;-75
2021/07/02 01:30:27;;;;;;;30.77;10.85;;;;;;;25.53;42.63;100742.34;4408823;32;20034;-74
2021/07/02 01:32:53;;;;;;;28.17;10.77;;;;;;;25.47;42.56;100742.44;4422968;32;20034;-74
2021/07/02 01:35:19;;;;;;;22.33;10.35;;;;;;;25.37;42.58;100749.09;4420409;32;20597;-75
2021/07/02 01:37:46;;;;;;;24.30;10.05;;;;;;;25.43;42.54;100750.59;4422953;32;20049;-74
2021/07/02 01:40:13;;;;;;;25.80;11.30;;;;;;;25.51;42.47;100745.00;4420009;32;20037;-74
2021/07/02 01:42:39;;;;;;;27.95;11.77;;;;;;;25.79;41.96;100751.97;4422032;32;20091;-74
2021/07/02 01:45:07;;;;;;;25.85;11.30;;;;;;;25.62;42.15;100756.41;4419431;32;20044;-75
2021/07/02 01:47:34;;;;;;;23.27;11.00;;;;;;;25.72;42.15;100748.91;4421330;32;20505;-74
2021/07/02 01:50:01;;;;;;;23.75;10.95;;;;;;;25.63;42.21;100746.41;4421332;32;20085;-74
2021/07/02 01:52:26;;;;;;;26.98;10.52;;;;;;;25.65;42.25;100740.91;4421671;32;20098;-75
2021/07/02 01:54:52;;;;;;;25.88;11.00;;;;;;;25.55;42.30;100748.38;4422844;32;20447;-75
2021/07/02 01:57:22;;;;;;;25.25;11.02;;;;;;;25.58;42.26;100747.28;4421466;32;20037;-74
2021/07/02 01:59:49;;;;;;;26.20;10.05;;;;;;;25.67;42.19;100735.37;4421406;32;20045;-75
2021/07/02 02:02:15;;;;;;;28.20;10.70;;;;;;;25.41;42.54;100746.69;4422727;32;20138;-75
2021/07/02 02:04:41;;;;;;;22.77;10.75;;;;;;;25.43;42.60;100747.69;4419503;32;20139;-75
2021/07/02 02:07:07;;;;;;;30.58;10.38;;;;;;;25.41;42.39;100740.94;4424313;32;20198;-74
2021/07/02 02:09:33;;;;;;;24.25;10.40;;;;;;;25.51;42.20;100742.09;4420720;32;20401;-75
2021/07/02 02:11:59;;;;;;;24.20;9.75;;;;;;;25.60;41.98;100738.84;4418757;32;20091;-74
2021/07/02 02:14:25;;;;;;;22.37;9.93;;;;;;;25.51;42.15;100736.34;4419752;32;20045;-75
2021/07/02 02:16:51;;;;;;;27.40;10.43;;;;;;;25.47;42.44;100747.41;4420888;32;20093;-75
2021/07/02 02:19:16;;;;;;;26.25;10.85;;;;;;;25.27;42.69;100746.56;4421594;32;20555;-74
2021/07/02 02:21:42;;;;;;;31.52;10.88;;;;;;;25.22;42.83;100738.75;4418261;32;20113;-75
2021/07/02 02:24:08;;;;;;;27.20;10.70;;;;;;;25.12;42.88;100731.00;4420461;32;20484;-75
2021/07/02 02:26:33;;;;;;;26.85;10.77;;;;;;;25.12;42.97;100728.13;4415094;32;20149;-74
2021/07/02 02:28:59;;;;;;;28.50;10.35;;;;;;;24.89;43.28;100724.72;4420630;32;20449;-75
2021/07/02 02:31:25;;;;;;;28.52;10.45;;;;;;;25.16;42.68;100726.50;4417742;32;20038;-74
2021/07/02 02:33:51;;;;;;;25.00;10.48;;;;;;;25.18;42.57;100723.09;4425334;32;20099;-74
2021/07/02 02:36:17;;;;;;;24.63;10.50;;;;;;;25.06;42.79;100721.63;4421719;32;20137;-75
2021/07/02 02:38:43;;;;;;;27.95;11.15;;;;;;;25.04;43.15;100730.81;4424043;32;20091;-75
2021/07/02 02:41:09;;;;;;;26.62;10.27;;;;;;;25.10;42.80;100722.91;4422715;32;20077;-75
2021/07/02 02:43:35;;;;;;;21.77;10.57;;;;;;;25.06;42.98;100719.56;4426579;32;20026;-75
2021/07/02 02:46:00;;;;;;;22.33;9.88;;;;;;;25.15;42.69;100724.16;4425252;32;20034;-74
2021/07/02 02:48:27;;;;;;;21.27;9.60;;;;;;;25.23;42.44;100730.91;4421776;32;20089;-75
2021/07/02 02:50:53;;;;;;;27.48;10.00;;;;;;;25.34;42.23;100725.00;4422414;32;20045;-74
2021/07/02 02:53:18;;;;;;;19.55;9.43;;;;;;;25.09;42.71;100721.34;4420401;32;20087;-75
2021/07/02 02:55:44;;;;;;;27.20;10.23;;;;;;;25.10;42.56;100722.91;4422300;32;20467;-75
2021/07/02 02:58:10;;;;;;;27.30;10.52;;;;;;;25.17;42.52;100725.19;4421883;32;20030;-75
2021/07/02 03:00:35;;;;;;;30.70;11.02;;;;;;;25.07;42.68;100726.88;4422093;32;20072;-75
2021/07/02 03:03:03;;;;;;;25.05;11.27;;;;;;;25.09;42.63;100717.69;4426638;32;20042;-75
2021/07/02 03:05:28;;;;;;;31.80;11.68;;;;;;;25.10;42.75;100722.13;4420801;32;20065;-74
2021/07/02 03:07:55;;;;;;;26.62;12.00;;;;;;;25.13;42.49;100721.06;4425707;32;20495;-75
2021/07/02 03:10:22;;;;;;;29.27;11.15;;;;;;;25.20;42.34;100720.44;4423056;32;20081;-75
2021/07/02 03:12:48;;;;;;;28.77;10.52;;;;;;;25.19;42.42;100716.03;4420567;32;20087;-75
2021/07/02 03:15:14;;;;;;;29.37;11.55;;;;;;;25.33;41.98;100730.03;4422318;32;20073;-75
2021/07/02 03:17:41;;;;;;;21.70;10.45;;;;;;;24.93;42.70;100719.44;4422551;32;20082;-74
2021/07/02 03:20:09;;;;;;;24.20;10.77;;;;;;;25.37;41.92;100728.94;4418909;32;20103;-75
2021/07/02 03:22:35;;;;;;;25.00;10.15;;;;;;;25.61;41.50;100721.03;4417830;32;20419;-75
2021/07/02 03:25:01;;;;;;;28.35;10.07;;;;;;;25.43;41.66;100721.75;4421364;32;20030;-75
2021/07/02 03:27:26;;;;;;;26.05;10.75;;;;;;;25.38;41.77;100725.50;4418284;32;20041;-75
2021/07/02 03:29:52;;;;;;;25.62;10.82;;;;;;;25.27;41.93;100720.62;4423404;32;20425;-75
2021/07/02 03:32:18;;;;;;;27.05;10.80;;;;;;;25.34;41.95;100720.03;4421546;32;20046;-74
2021/07/02 03:34:46;;;;;;;26.17;9.88;;;;;;;25.08;42.51;100721.87;4423976;32;20399;-74
2021/07/02 03:37:12;;;;;;;26.05;9.60;;;;;;;25.38;41.86;100725.50;4421510;32;20123;-75
2021/07/02 03:39:39;;;;;;;22.27;10.10;;;;;;;25.53;41.59;100713.53;4424525;32;20097;-75
2021/07/02 03:42:05;;;;;;;24.08;10.43;;;;;;;25.53;41.44;100717.22;4424108;32;20033;-75
2021/07/02 03:44:31;;;;;;;25.17;9.45;;;;;;;25.61;41.36;100726.78;4423065;32;20102;-75
2021/07/02 03:46:57;;;;;;;23.62;10.25;;;;;;;25.51;41.52;100728.50;4421965;32;20387;-75
2021/07/02 03:49:22;;;;;;;23.05;9.52;;;;;;;25.74;41.00;100723.22;4423957;32;20050;-75
2021/07/02 03:51:48;;;;;;;20.30;9.77;;;;;;;25.56;41.31;100719.00;4421605;32;20026;-75
2021/07/02 03:54:14;;;;;;;29.80;10.52;;;;;;;25.47;41.46;100722.25;4422602;32;20063;-75
2021/07/02 03:57:10;;;;;;;28.62;10.25;;;;;;;25.60;41.17;100722.34;4419245;32;20136;-74
2021/07/02 03:59:25;;;;;;;;;;;;;;;25.61;41.16;100720.25;4419542;32;20064;-74
2021/07/02 04:01:51;;;;;;;23.48;10.45;;;;;;;25.98;40.44;100714.53;4421030;32;19980;-75
2021/07/02 04:04:17;;;;;;;27.55;11.55;;;;;;;25.70;41.02;100711.19;4421586;32;20067;-75
2021/07/02 04:06:43;;;;;;;23.67;10.43;;;;;;;25.60;41.16;100707.94;4422336;32;21201;-74
2021/07/02 04:09:09;;;;;;;21.70;9.80;;;;;;;25.58;41.39;100715.59;4421654;32;20418;-75
2021/07/02 04:11:35;;;;;;;28.62;10.85;;;;;;;25.66;41.12;100704.97;4422851;32;20042;-74
2021/07/02 04:14:01;;;;;;;26.75;11.27;;;;;;;25.60;41.27;100710.03;4422997;32;20053;-75
2021/07/02 04:16:26;;;;;;;26.52;11.63;;;;;;;25.66;41.10;100713.62;4421114;32;20470;-75
2021/07/02 04:18:53;;;;;;;28.62;11.00;;;;;;;25.73;40.90;100704.34;4422175;32;20085;-75
2021/07/02 04:21:18;;;;;;;20.50;11.07;;;;;;;25.81;40.92;100706.09;4421014;32;20124;-75
2021/07/02 04:23:45;;;;;;;25.75;12.40;;;;;;;25.75;40.92;100713.25;4424633;32;20033;-75
2021/07/02 04:26:13;;;;;;;19.40;10.23;;;;;;;26.01;40.41;100710.56;4423782;32;20369;-75
2021/07/02 04:28:39;;;;;;;22.23;11.68;;;;;;;25.58;41.25;100701.94;4421483;32;20077;-74
2021/07/02 04:31:06;;;;;;;23.42;11.02;;;;;;;25.72;41.11;100699.91;4423674;32;20055;-75
2021/07/02 04:33:32;;;;;;;25.98;11.18;;;;;;;25.99;40.79;100699.56;4423057;32;20085;-74
2021/07/02 04:35:58;;;;;;;22.92;10.55;;;;;;;25.32;41.95;100698.88;4420514;32;20081;-75
2021/07/02 04:38:23;;;;;;;27.70;10.05;;;;;;;25.55;41.61;100697.25;4421831;32;20038;-75
2021/07/02 04:40:49;;;;;;;23.70;10.25;;;;;;;25.61;41.25;100702.97;4419414;32;20157;-75
2021/07/02 04:43:16;;;;;;;26.35;9.95;;;;;;;25.77;40.95;100699.06;4417358;32;20107;-74
2021/07/02 04:45:42;;;;;;;22.40;10.43;;;;;;;25.83;40.99;100708.44;4409644;32;20128;-75
2021/07/02 04:48:07;;;;;;;27.08;11.20;;;;;;;26.12;40.35;100713.25;4421341;32;20097;-75
2021/07/02 04:50:33;;;;;;;25.52;11.65;;;;;;;26.11;40.47;100714.59;4420985;32;20053;-75
2021/07/02 04:52:59;;;;;;;25.45;9.52;;;;;;;25.96;40.49;100709.28;4422809;32;20033;-75
2021/07/02 04:55:25;;;;;;;23.33;9.75;;;;;;;26.06;40.53;100709.69;4418068;32;20049;-75
2021/07/02 04:57:50;;;;;;;18.73;10.02;;;;;;;26.02;40.48;100707.13;4421058;32;20054;-75
2021/07/02 05:00:16;;;;;;;26.80;11.02;;;;;;;26.32;39.80;100706.94;4426108;32;20069;-75
2021/07/02 05:02:42;;;;;;;30.50;11.05;;;;;;;26.15;40.04;100715.06;4421893;32;20093;-75
2021/07/02 05:05:09;;;;;;;26.05;10.55;;;;;;;26.14;40.26;100719.28;4423097;32;20370;-75
2021/07/02 05:07:35;;;;;;;21.25;10.02;;;;;;;26.03;40.56;100710.78;4418948;32;20053;-75
2021/07/02 05:10:01;;;;;;;25.92;10.60;;;;;;;26.12;40.40;100719.03;4419638;32;20459;-75
2021/07/02 05:12:31;;;;;;;25.67;10.57;;;;;;;26.04;40.49;100707.34;4418905;32;20082;-75
2021/07/02 05:14:57;;;;;;;26.52;10.93;;;;;;;26.56;39.67;100715.41;4421275;32;20067;-75
2021/07/02 05:17:23;;;;;;;19.62;10.30;;;;;;;26.29;39.98;100708.78;4425875;32;20073;-75
2021/07/02 05:19:49;;;;;;;23.45;10.63;;;;;;;26.39;39.76;100718.59;4421362;32;20111;-74
2021/07/02 05:22:19;;;;;;;18.02;10.27;;;;;;;26.63;39.37;100714.81;4423544;32;20069;-75
2021/07/02 05:24:46;;;;;;;21.05;9.93;;;;;;;26.61;39.32;100721.13;4411037;32;20033;-75
2021/07/02 05:27:12;;;;;;;25.25;10.77;;;;;;;26.74;39.12;100711.72;4420468;32;20077;-75
2021/07/02 05:29:38;;;;;;;29.10;11.52;;;;;;;26.23;39.87;100724.63;4424233;32;20535;-75
2021/07/02 05:32:05;;;;;;;28.02;10.82;;;;;;;26.53;39.58;100719.41;4419920;32;20060;-75
2021/07/02 05:34:31;;;;;;;26.23;11.10;;;;;;;26.78;39.16;100721.63;4426033;32;20052;-74
2021/07/02 05:36:58;;;;;;;23.77;10.70;;;;;;;26.76;39.03;100717.75;4420705;32;20087;-75
2021/07/02 05:39:24;;;;;;;22.77;10.88;;;;;;;27.01;38.59;100714.13;4423422;32;20156;-75
2021/07/02 05:41:50;;;;;;;23.35;10.43;;;;;;;26.90;38.79;100713.53;4421409;32;20101;-74
2021/07/02 05:44:16;;;;;;;20.62;10.40;;;;;;;27.00;38.57;100727.00;4421130;32;20367;-75
2021/07/02 05:46:42;;;;;;;27.02;10.38;;;;;;;27.22;38.12;100715.00;4419816;32;20492;-75
2021/07/02 05:49:07;;;;;;;21.17;10.68;;;;;;;27.31;37.66;100716.72;4419444;32;20081;-75
2021/07/02 05:51:33;;;;;;;22.83;10.38;;;;;;;27.47;37.64;100721.37;4419354;32;20116;-75
2021/07/02 05:53:59;;;;;;;29.00;10.60;;;;;;;27.64;37.35;100724.69;4423646;32;20025;-74
2021/07/02 05:56:28;;;;;;;22.08;10.07;;;;;;;27.74;37.03;100733.69;4419690;32;20409;-74
2021/07/02 05:58:56;;;;;;;21.48;10.48;;;;;;;27.95;36.89;100720.88;4420852;32;20113;-75
2021/07/02 06:01:21;;;;;;;23.15;10.13;;;;;;;28.23;36.27;100726.03;4424984;32;20081;-75
2021/07/02 06:03:47;;;;;;;23.52;9.88;;;;;;;28.00;36.45;100731.53;4422110;32;20076;-75
2021/07/02 06:06:13;;;;;;;22.87;9.30;;;;;;;28.14;36.24;100729.41;4420021;32;20256;-75
2021/07/02 06:08:39;;;;;;;20.10;9.45;;;;;;;28.27;35.78;100733.03;4422365;32;20062;-75
2021/07/02 06:11:05;;;;;;;17.42;9.70;;;;;;;28.15;35.95;100734.63;4420196;32;20398;-75
2021/07/02 06:13:31;;;;;;;25.00;9.77;;;;;;;27.90;36.56;100735.47;4421270;32;20064;-74
2021/07/02 06:15:56;;;;;;;22.25;10.32;;;;;;;27.68;36.78;100736.72;4424578;32;20113;-75
2021/07/02 06:18:22;;;;;;;20.85;9.55;;;;;;;27.49;36.92;100736.06;4416337;32;20050;-75
2021/07/02 06:20:52;;;;;;;27.92;9.90;;;;;;;27.25;37.51;100738.37;4421326;32;20093;-75
2021/07/02 06:23:19;;;;;;;25.05;10.18;;;;;;;27.50;37.45;100739.72;4419872;32;20422;-74
2021/07/02 06:25:45;;;;;;;26.62;10.25;;;;;;;27.74;36.82;100730.78;4419306;32;20034;-75
2021/07/02 06:28:12;;;;;;;24.85;10.45;;;;;;;27.77;36.93;100729.69;4424073;32;20030;-75
2021/07/02 06:30:37;;;;;;;23.38;10.70;;;;;;;27.69;37.07;100743.25;4413454;32;20054;-74
2021/07/02 06:33:03;;;;;;;25.45;10.80;;;;;;;28.01;36.43;100733.09;4419261;32;20057;-74
2021/07/02 06:35:29;;;;;;;26.50;9.90;;;;;;;27.66;37.09;100730.69;4402587;32;20046;-74
2021/07/02 06:37:55;;;;;;;23.98;10.25;;;;;;;27.73;36.85;100732.16;4415790;32;20113;-74
2021/07/02 06:40:20;;;;;;;25.25;10.48;;;;;;;27.74;36.92;100727.91;4413291;32;20093;-75
2021/07/02 06:42:47;;;;;;;22.80;10.05;;;;;;;27.96;36.15;100721.66;4417273;32;20353;-75
2021/07/02 06:45:13;;;;;;;23.17;9.73;;;;;;;28.14;35.96;100724.41;4409132;32;20135;-73
2021/07/02 06:48:00;;;;;;;25.15;9.10;;;;;;;27.86;36.13;100718.47;4407665;32;20086;-74
2021/07/02 06:50:28;;;;;;;22.80;9.25;;;;;;;28.04;35.56;100723.28;4415324;32;20501;-73
2021/07/02 06:52:55;;;;;;;27.33;9.85;;;;;;;27.76;36.29;100731.03;4408588;32;20108;-74
2021/07/02 06:55:21;;;;;;;27.37;10.50;;;;;;;27.97;35.92;100726.09;4406607;32;20085;-73
2021/07/02 06:57:47;;;;;;;40.40;17.33;;;;;;;27.72;36.19;100730.56;4412898;32;20111;-74
2021/07/02 07:00:16;;;;;;;30.92;10.07;;;;;;;27.78;36.21;100723.34;4405526;32;20062;-75
2021/07/02 07:02:42;;;;;;;32.10;10.93;;;;;;;27.83;36.09;100728.25;4409637;32;20769;-73
2021/07/02 07:05:08;;;;;;;22.08;9.20;;;;;;;27.83;35.98;100722.44;4415229;32;20488;-73
2021/07/02 07:07:34;;;;;;;22.62;9.63;;;;;;;27.84;35.93;100729.00;4409881;32;20078;-74
2021/07/02 07:10:00;;;;;;;24.17;10.65;;;;;;;27.69;36.29;100732.47;4405482;32;20045;-73
2021/07/02 07:12:26;;;;;;;25.60;10.15;;;;;;;27.29;37.11;100728.06;4413166;32;20115;-73
2021/07/02 07:14:51;;;;;;;24.00;8.98;;;;;;;27.67;36.67;100729.34;4415119;32;20291;-71
2021/07/02 07:17:17;;;;;;;20.98;8.95;;;;;;;27.67;36.29;100740.91;4409485;32;20081;-75
2021/07/02 07:19:44;;;;;;;20.40;10.07;;;;;;;27.67;36.31;100735.13;4411757;32;20050;-74
2021/07/02 07:22:10;;;;;;;26.98;9.50;;;;;;;27.47;36.82;100735.84;4410957;32;20176;-74
2021/07/02 07:24:36;;;;;;;22.08;9.30;;;;;;;27.82;36.16;100741.13;4413216;32;20050;-74
2021/07/02 07:27:01;;;;;;;18.62;9.18;;;;;;;28.26;35.64;100750.94;4406452;32;20088;-75
2021/07/02 07:29:27;;;;;;;25.20;9.45;;;;;;;28.31;35.64;100745.03;4410012;32;20495;-73
2021/07/02 07:31:53;;;;;;;23.52;9.43;;;;;;;28.67;34.61;100748.91;4408371;32;20104;-75
2021/07/02 07:34:30;;;;;;;18.80;8.35;;;;;;;28.92;34.58;100746.41;4400930;32;20061;-74
2021/07/02 07:36:59;;;;;;;17.85;7.80;;;;;;;29.15;34.04;100743.72;4407045;32;20192;-74
2021/07/02 07:39:25;;;;;;;16.37;8.57;;;;;;;28.94;33.74;100740.84;4410309;32;20206;-74
2021/07/02 07:41:51;;;;;;;16.37;7.53;;;;;;;28.63;34.64;100739.78;4412764;32;20521;-77
2021/07/02 07:44:17;;;;;;;20.20;8.13;;;;;;;29.48;33.34;100742.81;4408351;32;20121;-74
2021/07/02 07:46:42;;;;;;;18.17;8.68;;;;;;;29.23;32.93;100738.78;4396377;32;20101;-74
2021/07/02 07:49:08;;;;;;;19.92;7.72;;;;;;;29.72;32.50;100748.16;4410584;32;20120;-73
2021/07/02 07:51:37;;;;;;;25.60;8.02;;;;;;;29.64;32.48;100745.25;4411068;32;20068;-72
2021/07/02 07:54:03;;;;;;;22.08;8.90;;;;;;;29.77;32.69;100742.22;4412110;32;20111;-72
2021/07/02 07:56:30;;;;;;;21.45;8.73;;;;;;;29.63;32.82;100758.19;4408337;32;20089;-72
2021/07/02 07:58:57;;;;;;;20.50;9.45;;;;;;;30.11;32.17;100759.37;4410366;32;20072;-73
2021/07/02 08:01:23;;;;;;;20.73;8.20;;;;;;;30.43;32.03;100759.72;4407258;32;20154;-73
2021/07/02 08:03:48;;;;;;;17.00;7.97;;;;;;;30.74;31.48;100750.47;4413040;32;20045;-72
2021/07/02 08:06:15;;;;;;;17.58;7.95;;;;;;;30.74;31.56;100752.63;4411816;32;20093;-74
2021/07/02 08:08:40;;;;;;;20.67;8.32;;;;;;;31.46;30.46;100756.69;4408542;32;20095;-74
2021/07/02 08:11:06;;;;;;;21.55;8.73;;;;;;;31.39;30.27;100754.56;4410208;32;20153;-73
2021/07/02 08:13:32;;;;;;;18.50;8.95;;;;;;;31.69;29.85;100763.22;4408204;32;20101;-73
2021/07/02 08:15:58;;;;;;;17.65;8.63;;;;;;;31.83;29.85;100767.47;4410033;32;20061;-73
2021/07/02 08:18:24;;;;;;;21.70;9.38;;;;;;;31.42;30.44;100778.78;4409193;32;20093;-74
2021/07/02 08:20:50;;;;;;;14.50;7.70;;;;;;;31.11;31.08;100778.03;4411303;32;20073;-74
2021/07/02 08:23:16;;;;;;;17.77;8.45;;;;;;;31.32;30.63;100777.84;4408757;32;20493;-74
2021/07/02 08:25:42;;;;;;;20.77;8.60;;;;;;;30.91;31.21;100767.34;4410983;32;20119;-74
2021/07/02 08:30:53;;;;;;;18.80;8.02;;;;;;;31.36;30.34;100793.56;4406187;32;20085;-74
2021/07/02 08:33:20;;;;;;;20.67;9.27;;;;;;;31.49;30.01;100789.63;4407605;32;20156;-73
2021/07/02 08:35:46;;;;;;;25.85;11.27;;;;;;;31.70;29.86;100790.19;4406791;32;20088;-73
2021/07/02 08:38:14;;;;;;;19.25;8.13;;;;;;;31.70;29.88;100785.16;4411680;32;20100;-73
2021/07/02 08:40:41;;;;;;;21.83;7.87;;;;;;;31.65;29.98;100791.94;4409155;32;20093;-73
2021/07/02 08:43:07;;;;;;;20.45;7.80;;;;;;;31.56;30.05;100791.75;4409879;32;20606;-73
2021/07/02 08:45:33;;;;;;;23.02;9.15;;;;;;;32.11;29.21;100793.37;4409450;32;20614;-73
2021/07/02 08:48:03;;;;;;;19.77;8.80;;;;;;;32.32;29.03;100790.94;4409851;32;20114;-73
2021/07/02 08:50:30;;;;;;;19.62;8.23;;;;;;;32.98;28.22;100784.56;4404828;32;20073;-73
2021/07/02 08:52:56;;;;;;;14.80;7.70;;;;;;;32.72;28.36;100787.22;4408658;32;20050;-73
2021/07/02 08:55:21;;;;;;;20.00;7.78;;;;;;;32.87;28.00;100798.81;4407917;32;20214;-73
2021/07/02 08:57:47;;;;;;;26.95;8.75;;;;;;;33.33;27.57;100789.13;4406813;32;20457;-73
2021/07/02 09:00:13;;;;;;;24.98;7.80;;;;;;;33.89;26.87;100794.03;4406093;32;20081;-73
2021/07/02 09:02:41;;;;;;;16.50;7.05;;;;;;;34.41;26.28;100794.00;4408090;32;21084;-74
2021/07/02 09:05:35;;;;;;;18.23;7.80;;;;;;;34.28;26.33;100792.19;4411173;32;20089;-73
2021/07/02 09:08:12;;;;;;;19.87;8.75;;;;;;;34.60;25.79;100791.19;4408974;32;20107;-72
2021/07/02 09:10:38;;;;;;;15.77;7.85;;;;;;;34.71;25.45;100797.25;4409468;32;20069;-73
2021/07/02 09:13:04;;;;;;;26.52;9.63;;;;;;;34.82;25.17;100796.69;4408988;32;21265;-73
2021/07/02 09:15:30;;;;;;;17.30;9.00;;;;;;;34.05;26.36;100782.94;4409924;32;20138;-72
2021/07/02 09:20:36;;;;;;;23.40;10.10;;;;;;;33.48;27.61;100794.84;3969169;32;15163668;-72
2021/07/02 09:23:04;;;;;;;30.77;10.80;;;;;;;33.48;27.61;100794.84;4431004;32;20155;-73
2021/07/02 09:28:08;;;;;;;22.67;10.40;;;;;;;33.73;27.36;100792.63;3977280;31;15711335;-73
2021/07/02 09:30:37;;;;;;;22.42;11.05;;;;;;;33.73;27.36;100792.63;4452909;32;20118;-72
2021/07/02 09:33:06;;;;;;;19.80;9.45;;;;;;;33.54;27.28;100785.81;4454933;32;20092;-73
2021/07/02 09:35:45;;;;;;;24.25;11.60;;;;;;;33.76;27.12;100785.59;4453641;32;20076;-72
2021/07/02 09:38:14;;;;;;;25.25;11.82;;;;;;;34.38;26.20;100792.28;4452268;32;20103;-73
2021/07/02 09:40:40;;;;;;;30.55;11.20;;;;;;;33.70;26.83;100781.38;4453499;32;20562;-73
2021/07/02 09:48:23;;;;;;;26.30;10.80;;;;;;;34.94;25.72;100774.28;3979533;32;15023105;-72
2021/07/02 09:51:01;;;;;;;19.15;9.20;;;;;;;34.94;25.72;100774.28;4429346;32;20462;-73
2021/07/02 09:53:30;;;;;;;20.20;9.75;;;;;;;34.31;26.28;100770.53;4430628;32;20108;-73
2021/07/02 09:55:58;;;;;;;22.70;10.48;;;;;;;34.85;25.57;100771.31;4426459;32;20476;-75
2021/07/02 09:58:27;;;;;;;19.08;10.88;;;;;;;34.87;25.58;100763.50;4430753;32;20042;-74
2021/07/02 10:00:55;;;;;;;21.00;10.65;;;;;;;34.80;25.82;100773.13;4427100;32;20359;-74
2021/07/02 10:03:25;;;;;;;20.10;10.23;;;;;;;35.53;24.69;100774.66;4427836;32;20069;-75
2021/07/02 10:08:29;;;;;;;18.08;9.80;;;;;;;36.10;24.65;100779.78;3967002;32;15021943;-73
2021/07/02 10:10:58;;;;;;;19.12;9.70;;;;;;;36.10;24.65;100779.78;4416766;32;20042;-72
2021/07/02 10:13:27;;;;;;;21.50;10.25;;;;;;;35.96;24.70;100773.59;4409694;32;20426;-73
2021/07/02 10:15:56;;;;;;;21.65;10.00;;;;;;;35.63;24.88;100775.44;4418478;32;20073;-73
2021/07/02 10:18:24;;;;;;;21.25;10.70;;;;;;;35.96;24.34;100773.59;4419218;32;20104;-73
2021/07/02 10:20:50;;;;;;;19.98;11.05;;;;;;;35.79;24.65;100773.75;4417432;32;20037;-74
2021/07/02 10:23:25;;;;;;;19.90;9.82;;;;;;;35.26;25.34;100776.09;4417822;32;20116;-73
2021/07/02 10:25:53;;;;;;;20.17;9.65;;;;;;;35.45;25.05;100773.22;4420587;32;20100;-73
2021/07/02 10:28:22;;;;;;;25.95;11.45;;;;;;;34.98;25.78;100771.72;4417289;32;20065;-73
2021/07/02 10:30:48;;;;;;;30.15;14.45;;;;;;;34.69;26.24;100755.37;4416794;32;20042;-73
2021/07/02 10:33:15;;;;;;;21.75;9.77;;;;;;;34.64;26.35;100754.28;4422107;32;20038;-74
2021/07/02 10:35:47;;;;;;;19.92;10.48;;;;;;;34.66;26.46;100757.34;4416771;32;20089;-74
2021/07/02 10:38:13;;;;;;;24.27;9.85;;;;;;;33.99;27.17;100751.06;4420004;32;20045;-74
2021/07/02 10:40:43;;;;;;;19.67;9.30;;;;;;;33.88;27.27;100742.84;4425106;32;20099;-74
2021/07/02 10:57:05;;;;;;;26.73;10.90;;;;;;;37.20;23.28;100740.28;3978460;32;15021391;-74
2021/07/02 11:04:53;;;;;;;21.17;10.52;;;;;;;37.10;23.60;100746.19;3970938;32;15024780;-76
2021/07/02 11:10:03;;;;;;;19.50;10.53;;;;;;;36.29;24.22;100744.63;4003086;31;15016675;-76
2021/07/02 11:15:15;;;;;;;20.02;10.75;;;;;;;35.70;25.17;100745.22;3972981;32;15022918;-76
2021/07/02 11:26:01;;;;;;;25.10;11.05;;;;;;;34.63;26.57;100735.19;3987661;32;15023912;-75
2021/07/02 11:28:33;;;;;;;29.15;12.05;;;;;;;34.63;26.57;100735.19;4443105;32;20064;-75
2021/07/02 11:31:03;;;;;;;21.67;11.38;;;;;;;34.25;26.49;100721.13;4443698;32;20093;-75
2021/07/02 11:33:30;;;;;;;24.52;11.12;;;;;;;34.41;26.21;100715.09;4439077;32;20541;-74
2021/07/02 11:38:42;;;;;;;22.27;11.55;;;;;;;33.59;27.65;100717.69;3947279;32;15732234;-73
2021/07/02 11:41:18;;;;;;;21.58;10.40;;;;;;;33.59;27.65;100717.69;4413040;32;20175;-72
2021/07/02 11:43:43;;;;;;;21.62;10.77;;;;;;;33.62;27.44;100719.41;4425760;32;20465;-73
2021/07/02 11:46:14;;;;;;;22.17;11.35;;;;;;;33.75;27.12;100719.03;4424992;32;20061;-73
2021/07/02 11:48:42;;;;;;;21.65;11.82;;;;;;;33.84;27.19;100719.09;4425224;32;20397;-74
2021/07/02 11:51:19;;;;;;;27.75;12.02;;;;;;;33.87;27.04;100723.00;4425470;32;20041;-75
2021/07/02 11:59:02;;;;;;;22.42;10.32;;;;;;;34.68;27.29;100733.34;3976976;32;15022871;-75
2021/07/02 12:01:38;;;;;;;25.10;11.40;;;;;;;34.68;27.29;100733.34;4427374;32;20107;-75
2021/07/02 12:06:44;;;;;;;27.23;10.73;;;;;;;35.50;25.84;100722.41;3996602;31;15025544;-75
2021/07/02 12:11:52;;;;;;;25.13;10.30;;;;;;;35.56;25.91;100725.81;3984561;31;15018127;-75
2021/07/02 12:17:00;;;;;;;23.17;11.30;;;;;;;35.82;25.56;100713.19;3982102;32;15022249;-77